createdAt,value
2022-11-06T00:01:07.302Z,1355.2
2022-11-06T00:02:50.911Z,1355
2022-11-06T00:04:34.611Z,1353.4
2022-11-06T00:06:18.377Z,1349.3
2022-11-06T00:08:02.033Z,1347.6
2022-11-06T00:09:45.726Z,1341.1
2022-11-06T00:11:29.495Z,1338.5
2022-11-06T00:13:13.158Z,1336.5
2022-11-06T00:14:56.821Z,1331.1
2022-11-06T00:16:40.552Z,1327.6
2022-11-06T00:18:24.259Z,1323.8
2022-11-06T00:20:07.969Z,1318.3
2022-11-06T00:21:51.729Z,1316.5
2022-11-06T00:23:35.344Z,1313.7
2022-11-06T00:25:19.041Z,1310.4
2022-11-06T00:27:02.811Z,1307.3
2022-11-06T00:28:46.517Z,1309.1
2022-11-06T00:30:30.164Z,1305.8
2022-11-06T00:32:13.901Z,1305.4
2022-11-06T00:33:57.605Z,1305.5
2022-11-06T00:35:41.286Z,1300.7
2022-11-06T00:37:24.980Z,1302.9
2022-11-06T00:39:08.747Z,1298
2022-11-06T00:40:52.396Z,1294.6
2022-11-06T00:42:36.145Z,1291.1
2022-11-06T00:44:19.833Z,1288.6
2022-11-06T00:46:03.482Z,1290.8
2022-11-06T00:47:47.180Z,1290.7
2022-11-06T00:49:30.956Z,1289.2
2022-11-06T00:51:14.580Z,1286.6
2022-11-06T00:52:58.287Z,1283.1
2022-11-06T00:54:42.030Z,1276.2
2022-11-06T00:56:25.730Z,1275.2
2022-11-06T00:58:09.418Z,1266.7
2022-11-06T00:59:53.190Z,1262.8
2022-11-06T01:01:36.860Z,1263.7
2022-11-06T01:03:20.505Z,1260.5
2022-11-06T01:05:04.204Z,1261.3
2022-11-06T01:06:47.970Z,1258.6
2022-11-06T01:08:31.646Z,1252.2
2022-11-06T01:10:15.306Z,1243
2022-11-06T01:11:59.021Z,1238.2
2022-11-06T01:13:42.755Z,1236.8
2022-11-06T01:15:26.408Z,1231.9
2022-11-06T01:17:10.146Z,1228.6
2022-11-06T01:18:53.833Z,1228.1
2022-11-06T01:20:37.523Z,1223.9
2022-11-06T01:22:21.309Z,1220.6
2022-11-06T01:24:04.967Z,1214
2022-11-06T01:25:48.649Z,1211.3
2022-11-06T01:27:32.434Z,1208.9
2022-11-06T01:29:16.102Z,1209.6
2022-11-06T01:30:59.818Z,1207.8
2022-11-06T01:32:43.446Z,1205.9
2022-11-06T01:34:27.167Z,1200.1
2022-11-06T01:36:10.846Z,1185.3
2022-11-06T01:37:54.567Z,1182.9
2022-11-06T01:39:38.263Z,1182.5
2022-11-06T01:41:21.988Z,1181.3
2022-11-06T01:43:05.729Z,1179.7
2022-11-06T01:44:49.369Z,1174.8
2022-11-06T01:46:33.072Z,1167.6
2022-11-06T01:48:16.762Z,1163.1
2022-11-06T01:50:00.466Z,1159.7
2022-11-06T01:51:44.175Z,1161.7
2022-11-06T01:53:27.877Z,1161.8
2022-11-06T01:55:11.625Z,1169.1
2022-11-06T01:56:55.316Z,1184.2
2022-11-06T01:58:38.976Z,1193.3
2022-11-06T02:00:22.719Z,1189.2
2022-11-06T02:02:06.459Z,1187.1
2022-11-06T02:03:50.164Z,1185.3
2022-11-06T02:05:33.891Z,1181.4
2022-11-06T02:07:17.513Z,1178.2
2022-11-06T02:09:01.225Z,1174.1
2022-11-06T02:10:44.951Z,1173.1
2022-11-06T02:12:28.602Z,1167.4
2022-11-06T02:14:12.311Z,1166.7
2022-11-06T02:15:56.019Z,1170.1
2022-11-06T02:17:39.727Z,1171.4
2022-11-06T02:19:23.443Z,1172
2022-11-06T02:21:07.171Z,1174.6
2022-11-06T02:22:50.828Z,1171
2022-11-06T02:24:34.582Z,1166.6
2022-11-06T02:26:18.220Z,1167.6
2022-11-06T02:28:01.961Z,1164.3
2022-11-06T02:29:45.632Z,1162
2022-11-06T02:31:29.324Z,1161.9
2022-11-06T02:33:13.066Z,1160.9
2022-11-06T02:34:56.782Z,1160.2
2022-11-06T02:36:40.437Z,1159.7
2022-11-06T02:38:24.147Z,1157.4
2022-11-06T02:40:07.871Z,1155
2022-11-06T02:41:51.543Z,1155.3
2022-11-06T02:43:35.267Z,1157.9
2022-11-06T02:45:19.022Z,1161.2
2022-11-06T02:47:02.698Z,1156
2022-11-06T02:48:46.381Z,1149.2
2022-11-06T02:50:30.071Z,1140.2
2022-11-06T02:52:13.768Z,1141.1
2022-11-06T02:53:57.464Z,1143.7
2022-11-06T02:55:41.175Z,1141.8
2022-11-06T02:57:24.870Z,1138
2022-11-06T02:59:08.600Z,1138
2022-11-06T03:00:52.295Z,1130.7
2022-11-06T03:02:35.979Z,1127.6
2022-11-06T03:04:19.698Z,1130.4
2022-11-06T03:06:03.413Z,1132.3
2022-11-06T03:07:47.083Z,1135.9
2022-11-06T03:09:30.803Z,1136.2
2022-11-06T03:11:14.585Z,1135.8
2022-11-06T03:12:58.235Z,1133.3
2022-11-06T03:14:41.927Z,1125.8
2022-11-06T03:16:25.604Z,1122.4
2022-11-06T03:18:09.305Z,1119.3
2022-11-06T03:19:53.014Z,1126
2022-11-06T03:21:36.697Z,1123.2
2022-11-06T03:23:20.401Z,1123.1
2022-11-06T03:25:04.166Z,1121.8
2022-11-06T03:26:47.862Z,1121.5
2022-11-06T03:28:31.507Z,1123.6
2022-11-06T03:30:15.213Z,1120.3
2022-11-06T03:31:58.939Z,1118.1
2022-11-06T03:33:42.614Z,1120.4
2022-11-06T03:35:26.321Z,1121.8
2022-11-06T03:37:10.033Z,1116.7
2022-11-06T03:38:53.720Z,1111.4
2022-11-06T03:40:37.471Z,1114
2022-11-06T03:42:21.124Z,1119.1
2022-11-06T03:44:04.829Z,1118.3
2022-11-06T03:45:48.580Z,1115.3
2022-11-06T03:47:32.226Z,1113.4
2022-11-06T03:49:15.990Z,1110.3
2022-11-06T03:50:59.628Z,1110.8
2022-11-06T03:52:43.331Z,1110.9
2022-11-06T03:54:27.052Z,1109.4
2022-11-06T03:56:10.750Z,1106.4
2022-11-06T03:57:54.514Z,1102.3
2022-11-06T03:59:38.233Z,1100.7
2022-11-06T04:01:21.887Z,1102.5
2022-11-06T04:03:05.605Z,1101.1
2022-11-06T04:04:49.285Z,1101
2022-11-06T04:06:32.987Z,1103.9
2022-11-06T04:08:16.668Z,1108.7
2022-11-06T04:10:00.358Z,1105.9
2022-11-06T04:11:44.058Z,1107
2022-11-06T04:13:27.806Z,1102.8
2022-11-06T04:15:11.468Z,1099.5
2022-11-06T04:16:55.200Z,1102.2
2022-11-06T04:18:38.911Z,1102.1
2022-11-06T04:20:22.577Z,1102.7
2022-11-06T04:22:06.281Z,1097
2022-11-06T04:23:49.981Z,1091.5
2022-11-06T04:25:33.698Z,1089.9
2022-11-06T04:27:17.422Z,1088.9
2022-11-06T04:29:01.088Z,1090
2022-11-06T04:30:44.794Z,1092.8
2022-11-06T04:32:28.502Z,1090.2
2022-11-06T04:34:12.197Z,1087.1
2022-11-06T04:35:55.914Z,1088.3
2022-11-06T04:37:39.630Z,1090.4
2022-11-06T04:39:23.316Z,1087.7
2022-11-06T04:41:07.009Z,1086.6
2022-11-06T04:42:50.762Z,1089.6
2022-11-06T04:44:34.425Z,1090.9
2022-11-06T04:46:18.119Z,1089.9
2022-11-06T04:48:01.872Z,1087.5
2022-11-06T04:49:45.585Z,1087
2022-11-06T04:51:29.256Z,1084.5
2022-11-06T04:53:12.932Z,1080.4
2022-11-06T04:54:56.645Z,1079.6
2022-11-06T04:56:40.394Z,1077.9
2022-11-06T04:58:24.063Z,1078
2022-11-06T05:00:07.750Z,1080.6
2022-11-06T05:01:51.490Z,1079.7
2022-11-06T05:03:35.139Z,1081.7
2022-11-06T05:05:18.859Z,1082.9
2022-11-06T05:07:02.551Z,1084.3
2022-11-06T05:08:46.250Z,1089.4
2022-11-06T05:10:29.956Z,1088.2
2022-11-06T05:12:13.675Z,1085.5
2022-11-06T05:13:57.375Z,1085.6
2022-11-06T05:15:41.108Z,1088.4
2022-11-06T05:17:24.785Z,1088.2
2022-11-06T05:19:08.482Z,1092.1
2022-11-06T05:20:52.165Z,1093.1
2022-11-06T05:22:35.892Z,1089.9
2022-11-06T05:24:19.566Z,1089.2
2022-11-06T05:26:03.292Z,1088
2022-11-06T05:27:47.051Z,1084.2
2022-11-06T05:29:30.669Z,1080.9
2022-11-06T05:31:14.383Z,1083.5
2022-11-06T05:32:58.086Z,1077.5
2022-11-06T05:34:41.801Z,1070.7
2022-11-06T05:36:25.530Z,1071.8
2022-11-06T05:38:09.196Z,1071.4
2022-11-06T05:39:52.893Z,1074.5
2022-11-06T05:41:36.611Z,1076.4
2022-11-06T05:43:20.316Z,1079.7
2022-11-06T05:45:04.011Z,1080
2022-11-06T05:46:47.713Z,1076.9
2022-11-06T05:48:31.405Z,1074.6
2022-11-06T05:50:15.118Z,1077.3
2022-11-06T05:51:58.823Z,1080.3
2022-11-06T05:53:42.507Z,1080.8
2022-11-06T05:55:26.212Z,1077.4
2022-11-06T05:57:09.947Z,1073.6
2022-11-06T05:58:53.615Z,1073.9
2022-11-06T06:00:37.318Z,1071.6
2022-11-06T06:02:21.045Z,1073.2
2022-11-06T06:04:04.748Z,1073.3
2022-11-06T06:05:48.428Z,1076.6
2022-11-06T06:07:32.133Z,1075.8
2022-11-06T06:09:15.836Z,1077.9
2022-11-06T06:10:59.535Z,1078.5
2022-11-06T06:12:43.242Z,1080.9
2022-11-06T06:14:26.941Z,1083.8
2022-11-06T06:16:10.659Z,1084.6
2022-11-06T06:17:54.361Z,1082.8
2022-11-06T06:19:38.054Z,1080.9
2022-11-06T06:21:21.749Z,1081.8
2022-11-06T06:23:05.469Z,1083.5
2022-11-06T06:24:49.176Z,1086.2
2022-11-06T06:26:32.977Z,1090.5
2022-11-06T06:28:16.558Z,1089.7
2022-11-06T06:30:00.306Z,1086.3
2022-11-06T06:31:43.967Z,1085.2
2022-11-06T06:33:27.681Z,1085.8
2022-11-06T06:35:11.424Z,1088.4
2022-11-06T06:36:55.076Z,1084.7
2022-11-06T06:38:38.820Z,1084.4
2022-11-06T06:40:22.493Z,1082.7
2022-11-06T06:42:06.195Z,1082
2022-11-06T06:43:49.876Z,1087
2022-11-06T06:45:33.606Z,1087.2
2022-11-06T06:47:17.349Z,1088.1
2022-11-06T06:49:00.989Z,1084.2
2022-11-06T06:50:44.689Z,1085.5
2022-11-06T06:52:28.408Z,1089.2
2022-11-06T06:54:12.117Z,1094
2022-11-06T06:55:55.792Z,1091.7
2022-11-06T06:59:23.227Z,1083.6
2022-11-06T07:01:06.902Z,1082.1
2022-11-06T07:02:50.609Z,1082.5
2022-11-06T07:04:34.327Z,1081.3
2022-11-06T07:06:18.042Z,1085.3
2022-11-06T07:08:01.762Z,1085
2022-11-06T07:09:45.498Z,1086.1
2022-11-06T07:11:29.146Z,1086.6
2022-11-06T07:13:12.824Z,1083.4
2022-11-06T07:14:56.548Z,1081.5
2022-11-06T07:16:40.221Z,1080
2022-11-06T07:18:23.929Z,1077.9
2022-11-06T07:20:07.658Z,1075.6
2022-11-06T07:21:51.335Z,1077.1
2022-11-06T07:23:35.041Z,1079.9
2022-11-06T07:25:18.822Z,1083
2022-11-06T07:27:02.442Z,1082.3
2022-11-06T07:28:46.151Z,1080.9
2022-11-06T07:30:29.907Z,1081.6
2022-11-06T07:32:13.601Z,1085.8
2022-11-06T07:33:57.248Z,1084.4
2022-11-06T07:35:40.950Z,1085.4
2022-11-06T07:37:24.670Z,1084.5
2022-11-06T07:39:08.404Z,1081.6
2022-11-06T07:40:52.063Z,1083.5
2022-11-06T07:42:35.758Z,1087.9
2022-11-06T07:44:19.464Z,1089.7
2022-11-06T07:46:03.200Z,1093.6
2022-11-06T07:47:46.866Z,1092.6
2022-11-06T07:49:30.571Z,1094
2022-11-06T07:51:14.307Z,1094.4
2022-11-06T07:52:57.980Z,1095.2
2022-11-06T07:54:41.748Z,1095.4
2022-11-06T07:56:25.456Z,1094.1
2022-11-06T07:58:09.145Z,1090.7
2022-11-06T07:59:52.787Z,1088.8
2022-11-06T08:01:36.484Z,1093.5
2022-11-06T08:03:20.186Z,1097.1
2022-11-06T08:05:03.983Z,1099.9
2022-11-06T08:06:47.606Z,1106.3
2022-11-06T08:08:31.399Z,1109.5
2022-11-06T08:10:15.053Z,1110.1
2022-11-06T08:11:58.818Z,1108.8
2022-11-06T08:13:42.429Z,1107.1
2022-11-06T08:15:26.118Z,1102.6
2022-11-06T08:17:09.821Z,1101.5
2022-11-06T08:18:53.561Z,1100.7
2022-11-06T08:20:37.218Z,1098.4
2022-11-06T08:22:20.932Z,1088.7
2022-11-06T08:24:04.643Z,1082.2
2022-11-06T08:25:48.315Z,1089.6
2022-11-06T08:27:32.018Z,1101.7
2022-11-06T08:29:15.753Z,1109.7
2022-11-06T08:30:59.470Z,1120.1
2022-11-06T08:32:43.164Z,1132.2
2022-11-06T08:34:26.855Z,1137.6
2022-11-06T08:36:10.548Z,1169.6
2022-11-06T08:37:54.250Z,1182.7
2022-11-06T08:39:38.017Z,1171.2
2022-11-06T08:41:21.650Z,1172.2
2022-11-06T08:43:05.451Z,1174.6
2022-11-06T08:44:49.080Z,1139.5
2022-11-06T08:46:32.844Z,1097.8
2022-11-06T08:48:16.543Z,1097.8
2022-11-06T08:50:00.158Z,1096.6
2022-11-06T08:51:43.962Z,1094.5
2022-11-06T08:53:27.680Z,1095.1
2022-11-06T08:55:11.263Z,1097.3
2022-11-06T08:56:55.028Z,1096.2
2022-11-06T08:58:38.727Z,1099.3
2022-11-06T09:00:22.484Z,1103.5
2022-11-06T09:02:06.139Z,1104.7
2022-11-06T09:03:49.830Z,1104.6
2022-11-06T09:05:33.494Z,1108.2
2022-11-06T09:07:17.264Z,1111.1
2022-11-06T09:09:00.892Z,1112.3
2022-11-06T09:10:44.613Z,1112.9
2022-11-06T09:12:28.313Z,1115.4
2022-11-06T09:14:12.033Z,1116.2
2022-11-06T09:15:55.697Z,1115.9
2022-11-06T09:17:39.399Z,1111.3
2022-11-06T09:19:23.115Z,1113.2
2022-11-06T09:21:06.898Z,1115.2
2022-11-06T09:22:50.566Z,1120
2022-11-06T09:24:34.210Z,1121
2022-11-06T09:26:17.916Z,1121.9
2022-11-06T09:28:01.714Z,1116.1
2022-11-06T09:29:45.316Z,1112.8
2022-11-06T09:31:29.142Z,1231.8
2022-11-06T09:33:12.747Z,1307
2022-11-06T09:34:56.487Z,1289
2022-11-06T09:36:40.218Z,1270.3
2022-11-06T09:38:23.864Z,1202.1
2022-11-06T09:40:07.604Z,1191.8
2022-11-06T09:41:51.284Z,1195
2022-11-06T09:43:34.935Z,1197.9
2022-11-06T09:45:18.685Z,1202.7
2022-11-06T09:47:02.356Z,1212.4
2022-11-06T09:48:46.068Z,1218
2022-11-06T09:50:29.752Z,1226.8
2022-11-06T09:52:13.471Z,1231.1
2022-11-06T09:53:57.216Z,1241.3
2022-11-06T09:55:40.851Z,1250.9
2022-11-06T09:57:24.568Z,1261
2022-11-06T09:59:08.295Z,1270.5
2022-11-06T10:00:51.954Z,1283.6
2022-11-06T10:02:35.693Z,1290.2
2022-11-06T10:04:19.367Z,1290.4
2022-11-06T10:06:03.096Z,1302.2
2022-11-06T10:07:46.768Z,1314.1
2022-11-06T10:09:30.531Z,1320.1
2022-11-06T10:11:14.178Z,1327.5
2022-11-06T10:12:57.883Z,1337.1
2022-11-06T10:14:41.663Z,1345.4
2022-11-06T10:16:25.309Z,1344.3
2022-11-06T10:18:08.991Z,1356.2
2022-11-06T10:19:52.769Z,1363.5
2022-11-06T10:21:36.443Z,1368.9
2022-11-06T10:23:20.164Z,1369.1
2022-11-06T10:25:03.910Z,1371.7
2022-11-06T10:26:47.527Z,1375.3
2022-11-06T10:28:31.248Z,1375.8
2022-11-06T10:30:14.950Z,1374.1
2022-11-06T10:31:58.619Z,1375.5
2022-11-06T10:33:42.359Z,1374.9
2022-11-06T10:35:26.139Z,1373.5
2022-11-06T10:37:09.718Z,1373.4
2022-11-06T10:38:53.454Z,1371.4
2022-11-06T10:40:37.132Z,1369.7
2022-11-06T10:42:20.827Z,1365.5
2022-11-06T10:44:04.535Z,1364.5
2022-11-06T10:45:48.303Z,1362.4
2022-11-06T10:47:31.937Z,1362.8
2022-11-06T10:49:15.652Z,1364.9
2022-11-06T10:50:59.340Z,1365
2022-11-06T10:52:43.060Z,1364.4
2022-11-06T10:54:26.751Z,1368
2022-11-06T10:56:10.450Z,1369.2
2022-11-06T10:57:54.212Z,1364.3
2022-11-06T10:59:37.957Z,1355.4
2022-11-06T11:01:21.564Z,1353.9
2022-11-06T11:03:05.267Z,1348.7
2022-11-06T11:04:49.002Z,1337.3
2022-11-06T11:06:32.683Z,1332.9
2022-11-06T11:08:16.373Z,1330.5
2022-11-06T11:10:00.071Z,1326
2022-11-06T11:11:43.835Z,1319.5
2022-11-06T11:13:27.474Z,1316.6
2022-11-06T11:15:11.198Z,1320.5
2022-11-06T11:16:54.938Z,1323.2
2022-11-06T11:18:38.579Z,1329.8
2022-11-06T11:20:22.287Z,1338.8
2022-11-06T11:22:06.002Z,1352
2022-11-06T11:23:49.698Z,1363.9
2022-11-06T11:25:33.450Z,1362.6
2022-11-06T11:27:17.094Z,1369.3
2022-11-06T11:29:00.841Z,1382.9
2022-11-06T11:30:44.543Z,1393.1
2022-11-06T11:32:28.237Z,1386.8
2022-11-06T11:34:11.907Z,1385.9
2022-11-06T11:35:55.671Z,1386.9
2022-11-06T11:37:39.366Z,1389.3
2022-11-06T11:39:23.024Z,1391.2
2022-11-06T11:41:06.715Z,1390.1
2022-11-06T11:42:50.431Z,1387.4
2022-11-06T11:44:34.140Z,1387.6
2022-11-06T11:46:17.823Z,1383.2
2022-11-06T11:49:45.292Z,1390.8
2022-11-06T11:51:28.941Z,1398.3
2022-11-06T11:53:12.669Z,1394.6
2022-11-06T11:54:56.384Z,1400.1
2022-11-06T11:56:40.045Z,1409.3
2022-11-06T11:58:23.803Z,1407.1
2022-11-06T12:00:07.447Z,1409.8
2022-11-06T12:01:51.194Z,1432.5
2022-11-06T12:03:34.847Z,1453.7
2022-11-06T12:05:18.551Z,1462.7
2022-11-06T12:07:02.323Z,1468.5
2022-11-06T12:08:45.959Z,1466.2
2022-11-06T12:10:29.685Z,1466.6
2022-11-06T12:12:13.354Z,1469
2022-11-06T12:13:57.063Z,1468.8
2022-11-06T12:15:40.771Z,1466.4
2022-11-06T12:17:24.466Z,1467.6
2022-11-06T12:19:08.255Z,1466.7
2022-11-06T12:20:51.877Z,1467.7
2022-11-06T12:22:35.573Z,1469.1
2022-11-06T12:24:19.277Z,1468.2
2022-11-06T12:26:02.977Z,1473.6
2022-11-06T12:27:46.729Z,1482.4
2022-11-06T12:29:30.388Z,1475.5
2022-11-06T12:31:14.142Z,1470.7
2022-11-06T12:32:57.787Z,1469.9
2022-11-06T12:34:41.496Z,1475.2
2022-11-06T12:36:25.184Z,1475.4
2022-11-06T12:38:08.960Z,1475
2022-11-06T12:39:52.596Z,1474.4
2022-11-06T12:41:36.343Z,1472.7
2022-11-06T12:43:20.058Z,1472.2
2022-11-06T12:45:03.703Z,1477.8
2022-11-06T12:46:47.410Z,1479.3
2022-11-06T12:48:31.118Z,1478.9
2022-11-06T12:50:14.824Z,1486.3
2022-11-06T12:51:58.539Z,1502.5
2022-11-06T12:53:42.217Z,1511.8
2022-11-06T12:55:25.920Z,1515.1
2022-11-06T12:57:09.623Z,1523
2022-11-06T12:58:53.361Z,1532.4
2022-11-06T13:00:37.034Z,1534.4
2022-11-06T13:02:20.734Z,1539.9
2022-11-06T13:04:04.484Z,1560.5
2022-11-06T13:05:48.171Z,1569.5
2022-11-06T13:07:31.833Z,1571.3
2022-11-06T13:09:15.586Z,1567.4
2022-11-06T13:10:59.241Z,1562.1
2022-11-06T13:12:42.949Z,1561.6
2022-11-06T13:16:10.352Z,1559.2
2022-11-06T13:17:54.044Z,1557.3
2022-11-06T13:19:37.750Z,1554.3
2022-11-06T13:21:21.453Z,1482.8
2022-11-06T13:23:05.189Z,1464.4
2022-11-06T13:24:48.870Z,1462.9
2022-11-06T13:26:32.582Z,1470.3
2022-11-06T13:28:16.307Z,1474.8
2022-11-06T13:29:59.973Z,1477.9
2022-11-06T13:33:27.398Z,1480.2
2022-11-06T13:35:11.106Z,1482.1
2022-11-06T13:36:54.806Z,1460.2
2022-11-06T13:38:38.552Z,1464.8
2022-11-06T13:40:22.183Z,1457.2
2022-11-06T13:42:05.886Z,1444.2
2022-11-06T13:43:49.598Z,1432.6
2022-11-06T13:45:33.302Z,1421.1
2022-11-06T13:47:16.990Z,1425.6
2022-11-06T13:49:00.707Z,1421.4
2022-11-06T13:50:44.417Z,1408
2022-11-06T13:52:28.104Z,1396.6
2022-11-06T13:54:11.806Z,1378.5
2022-11-06T13:55:55.503Z,1380.2
2022-11-06T13:57:39.207Z,1383.6
2022-11-06T13:59:22.909Z,1372.4
2022-11-06T14:01:06.647Z,1372.5
2022-11-06T14:02:50.319Z,1367.6
2022-11-06T14:04:34.021Z,1363.9
2022-11-06T14:06:17.726Z,1361
2022-11-06T14:08:01.420Z,1354
2022-11-06T14:09:45.118Z,1349.4
2022-11-06T14:11:28.829Z,1346.2
2022-11-06T14:13:12.522Z,1341.8
2022-11-06T14:14:56.236Z,1334.2
2022-11-06T14:16:39.938Z,1328
2022-11-06T14:18:23.634Z,1320.8
2022-11-06T14:20:07.347Z,1323.4
2022-11-06T14:21:51.117Z,1323.7
2022-11-06T14:23:34.756Z,1323.4
2022-11-06T14:25:18.441Z,1325.9
2022-11-06T14:27:02.165Z,1330.7
2022-11-06T14:28:45.920Z,1338
2022-11-06T14:30:29.552Z,1340.9
2022-11-06T14:32:13.269Z,1344.8
2022-11-06T14:33:56.956Z,1349.1
2022-11-06T14:35:40.657Z,1351.5
2022-11-06T14:37:24.376Z,1354.1
2022-11-06T14:39:08.136Z,1354.1
2022-11-06T14:40:51.782Z,1350
2022-11-06T14:42:35.619Z,1349.1
2022-11-06T14:44:19.292Z,1349.6
2022-11-06T14:46:03.033Z,1351.2
2022-11-06T14:47:46.603Z,1352.7
2022-11-06T14:49:30.420Z,1361.8
2022-11-06T14:51:14.094Z,1361.7
2022-11-06T14:52:57.729Z,1359.2
2022-11-06T14:54:41.404Z,1361.6
2022-11-06T14:56:25.132Z,1364
2022-11-06T14:58:08.924Z,1365.7
2022-11-06T14:59:52.495Z,1364.3
2022-11-06T15:01:36.204Z,1358.7
2022-11-06T15:03:19.908Z,1356.4
2022-11-06T15:05:03.625Z,1358.1
2022-11-06T15:06:47.315Z,1356.2
2022-11-06T15:08:31.010Z,1362.6
2022-11-06T15:10:14.712Z,1374.6
2022-11-06T15:11:58.517Z,1372.5
2022-11-06T15:13:42.141Z,1377.2
2022-11-06T15:15:25.861Z,1377.2
2022-11-06T15:17:09.536Z,1376.3
2022-11-06T15:18:53.256Z,1376
2022-11-06T15:20:37.009Z,1374.2
2022-11-06T15:22:20.651Z,1372
2022-11-06T15:24:04.336Z,1357.2
2022-11-06T15:25:48.043Z,1337.6
2022-11-06T15:27:31.743Z,1345.1
2022-11-06T15:30:59.148Z,1360.9
2022-11-06T15:32:42.855Z,1373.2
2022-11-06T15:34:26.567Z,1369.2
2022-11-06T15:36:10.304Z,1365.1
2022-11-06T15:37:54.016Z,1363.5
2022-11-06T15:39:37.668Z,1364
2022-11-06T15:41:21.369Z,1366.5
2022-11-06T15:43:05.062Z,1366.1
2022-11-06T15:44:48.770Z,1362.4
2022-11-06T15:46:32.500Z,1350.5
2022-11-06T15:48:16.206Z,1335.8
2022-11-06T15:49:59.872Z,1329.3
2022-11-06T15:51:43.680Z,1339.6
2022-11-06T15:53:27.379Z,1339.1
2022-11-06T15:55:10.978Z,1336.6
2022-11-06T15:56:54.688Z,1319.6
2022-11-06T15:58:38.407Z,1248.7
2022-11-06T16:00:22.177Z,1240.8
2022-11-06T16:02:05.788Z,1251.4
2022-11-06T16:03:49.500Z,1252.4
2022-11-06T16:05:33.198Z,1250.5
2022-11-06T16:07:16.903Z,1249.4
2022-11-06T16:09:00.621Z,1246.2
2022-11-06T16:10:44.314Z,1244.4
2022-11-06T16:12:28.012Z,1237.5
2022-11-06T16:14:11.716Z,1239.8
2022-11-06T16:15:55.471Z,1237.1
2022-11-06T16:17:39.144Z,1233.5
2022-11-06T16:19:22.841Z,1225.4
2022-11-06T16:21:06.523Z,1219.3
2022-11-06T16:22:50.228Z,1220.5
2022-11-06T16:24:33.945Z,1217.3
2022-11-06T16:26:17.670Z,1215.1
2022-11-06T16:28:01.342Z,1212.4
2022-11-06T16:29:45.035Z,1215
2022-11-06T16:31:28.840Z,1222
2022-11-06T16:33:12.436Z,1235.4
2022-11-06T16:34:56.146Z,1228.6
2022-11-06T16:36:39.844Z,1219.2
2022-11-06T16:38:23.548Z,1211.6
2022-11-06T16:40:07.250Z,1217.2
2022-11-06T16:41:50.949Z,1215
2022-11-06T16:43:34.653Z,1214.5
2022-11-06T16:45:18.386Z,1213.1
2022-11-06T16:47:02.061Z,1211.9
2022-11-06T16:48:45.816Z,1211.3
2022-11-06T16:50:29.470Z,1216.6
2022-11-06T16:52:13.161Z,1214.6
2022-11-06T16:53:56.932Z,1211.5
2022-11-06T16:55:40.573Z,1209.2
2022-11-06T16:57:24.274Z,1203.7
2022-11-06T17:00:51.674Z,1200.3
2022-11-06T17:02:35.378Z,1198.7
2022-11-06T17:04:19.090Z,1198.8
2022-11-06T17:06:02.781Z,1199.9
2022-11-06T17:07:46.541Z,1198.9
2022-11-06T17:09:30.215Z,1195
2022-11-06T17:11:13.940Z,1193.8
2022-11-06T17:12:57.665Z,1192
2022-11-06T17:14:41.316Z,1187.2
2022-11-06T17:16:24.997Z,1183
2022-11-06T17:18:08.705Z,1182.3
2022-11-06T17:19:52.410Z,1176
2022-11-06T17:21:36.186Z,1174.9
2022-11-06T17:23:19.809Z,1173.6
2022-11-06T17:25:03.517Z,1170.8
2022-11-06T17:28:31.037Z,1166.2
2022-11-06T17:30:14.770Z,1168.5
2022-11-06T17:31:58.441Z,1164.7
2022-11-06T17:33:42.188Z,1160.9
2022-11-06T17:37:09.541Z,1140.2
2022-11-06T17:38:53.243Z,1141.4
2022-11-06T17:42:20.622Z,1137.5
2022-11-06T17:44:04.351Z,1139
2022-11-06T17:45:48.019Z,1137.4
2022-11-06T17:47:31.756Z,1136.6
2022-11-06T17:49:15.367Z,1118.2
2022-11-06T17:50:59.151Z,1118.5
2022-11-06T17:52:42.757Z,1122.9
2022-11-06T17:54:26.544Z,1120.1
2022-11-06T17:56:10.208Z,1119
2022-11-06T17:57:53.856Z,1118.4
2022-11-06T17:59:37.591Z,1115.6
2022-11-06T18:01:21.340Z,1185.7
2022-11-06T18:03:04.968Z,1239
2022-11-06T18:04:48.687Z,1243.3
2022-11-06T18:06:32.493Z,1240.6
2022-11-06T18:08:16.186Z,1232.7
2022-11-06T18:09:59.795Z,1228.9
2022-11-06T18:11:43.517Z,1221.5
2022-11-06T18:13:27.233Z,1215.6
2022-11-06T18:15:10.964Z,1210.9
2022-11-06T18:16:54.670Z,1207.4
2022-11-06T18:18:38.307Z,1203.3
2022-11-06T18:20:22.116Z,1204
2022-11-06T18:22:05.700Z,1204.5
2022-11-06T18:23:49.518Z,1204.2
2022-11-06T18:25:33.095Z,1199
2022-11-06T18:27:16.926Z,1201.8
2022-11-06T18:29:00.511Z,1205.7
2022-11-06T18:30:44.202Z,1216
2022-11-06T18:32:27.936Z,1219.7
2022-11-06T18:34:11.619Z,1214.3
2022-11-06T18:35:55.343Z,1205.8
2022-11-06T18:37:39.041Z,1202.2
2022-11-06T18:39:22.797Z,1194.2
2022-11-06T18:41:06.419Z,1191
2022-11-06T18:42:50.159Z,1188.6
2022-11-06T18:44:33.844Z,1185.4
2022-11-06T18:46:17.536Z,1168.1
2022-11-06T18:48:01.239Z,1155.1
2022-11-06T18:49:44.935Z,1149.5
2022-11-06T18:51:28.699Z,1149.8
2022-11-06T18:53:12.409Z,1150.7
2022-11-06T18:54:56.086Z,1150.3
2022-11-06T18:56:39.745Z,1150
2022-11-06T18:58:23.617Z,1146.6
2022-11-06T19:00:07.143Z,1141.7
2022-11-06T19:01:50.867Z,1136.4
2022-11-06T19:03:34.563Z,1135
2022-11-06T19:05:18.252Z,1133.8
2022-11-06T19:07:01.959Z,1122.9
2022-11-06T19:08:45.659Z,1114.8
2022-11-06T19:10:29.356Z,1116.4
2022-11-06T19:12:13.060Z,1114.4
2022-11-06T19:13:56.785Z,1086
2022-11-06T19:15:40.471Z,1079.7
2022-11-06T19:17:24.170Z,1076.9
2022-11-06T19:19:07.911Z,1081.5
2022-11-06T19:20:51.602Z,1088
2022-11-06T19:22:35.314Z,1087.4
2022-11-06T19:24:19.079Z,1081.3
2022-11-06T19:26:02.690Z,1079
2022-11-06T19:27:46.457Z,1081.1
2022-11-06T19:29:30.192Z,1078
2022-11-06T19:31:13.813Z,1077
2022-11-06T19:32:57.522Z,1077.3
2022-11-06T19:34:41.273Z,1076.4
2022-11-06T19:36:24.911Z,1077.3
2022-11-06T19:38:08.603Z,1083.1
2022-11-06T19:39:52.356Z,1084
2022-11-06T19:41:36.019Z,1082.1
2022-11-06T19:43:19.717Z,1077.8
2022-11-06T19:45:03.438Z,1072.5
2022-11-06T19:46:47.244Z,1072.1
2022-11-06T19:48:31.024Z,1077.9
2022-11-06T19:50:14.536Z,1191.8
2022-11-06T19:51:58.392Z,1267.9
2022-11-06T19:53:42.059Z,1247.2
2022-11-06T19:57:09.342Z,1207
2022-11-06T19:58:53.144Z,1152.1
2022-11-06T20:00:36.848Z,1131.4
2022-11-06T20:02:20.448Z,1131.7
2022-11-06T20:04:04.300Z,1123.4
2022-11-06T20:05:47.953Z,1127.9
2022-11-06T20:07:31.674Z,1128.6
2022-11-06T20:09:15.265Z,1125.8
2022-11-06T20:10:58.971Z,1116.8
2022-11-06T20:12:42.672Z,1117.4
2022-11-06T20:14:26.482Z,1121
2022-11-06T20:16:10.239Z,1120.3
2022-11-06T20:17:53.836Z,1118.4
2022-11-06T20:19:37.489Z,1118.8
2022-11-06T20:21:21.175Z,1116.9
2022-11-06T20:23:04.892Z,1113.5
2022-11-06T20:24:48.624Z,1108.7
2022-11-06T20:26:32.371Z,1103
2022-11-06T20:28:15.982Z,1102
2022-11-06T20:29:59.886Z,1100.2
2022-11-06T20:31:43.558Z,1100
2022-11-06T20:33:27.280Z,1094.6
2022-11-06T20:35:10.997Z,1091.6
2022-11-06T20:36:54.600Z,1097.2
2022-11-06T20:38:38.299Z,1092.2
2022-11-06T20:40:22.067Z,1086.5
2022-11-06T20:42:05.777Z,1073
2022-11-06T20:45:33.163Z,1068.5
2022-11-06T20:47:16.704Z,1066.6
2022-11-06T20:49:00.560Z,1065.9
2022-11-06T20:50:44.190Z,1067.8
2022-11-06T20:52:27.972Z,1065
2022-11-06T20:54:11.677Z,1059.9
2022-11-06T20:55:55.400Z,1057.6
2022-11-06T20:57:39.049Z,1057.9
2022-11-06T20:59:22.862Z,1053.4
2022-11-06T21:01:06.528Z,1050.3
2022-11-06T21:02:50.288Z,1048.4
2022-11-06T21:04:33.887Z,1048.7
2022-11-06T21:06:17.479Z,1046.4
2022-11-06T21:08:01.325Z,1044.2
2022-11-06T21:09:45.017Z,1046.1
2022-11-06T21:11:28.570Z,1049.2
2022-11-06T21:13:12.285Z,1050.8
2022-11-06T21:14:55.946Z,1054.9
2022-11-06T21:16:39.645Z,1059.6
2022-11-06T21:18:23.355Z,1060.8
2022-11-06T21:20:07.057Z,1058.7
2022-11-06T21:21:50.756Z,1048.4
2022-11-06T21:23:34.455Z,1043.6
2022-11-06T21:25:18.160Z,1037.4
2022-11-06T21:27:01.890Z,1038.1
2022-11-06T21:28:45.564Z,1040.5
2022-11-06T21:30:29.274Z,1046.2
2022-11-06T21:32:12.978Z,1076.4
2022-11-06T21:33:56.671Z,1088.1
2022-11-06T21:35:40.379Z,1090.8
2022-11-06T21:37:24.081Z,1088.1
2022-11-06T21:39:07.800Z,1086.7
2022-11-06T21:40:51.490Z,1087.1
2022-11-06T21:42:35.184Z,1081.5
2022-11-06T21:44:18.890Z,1070.2
2022-11-06T21:46:02.596Z,1035.2
2022-11-06T21:47:46.292Z,1021.6
2022-11-06T21:49:30.036Z,1019.3
2022-11-06T21:51:13.701Z,1017.7
2022-11-06T21:52:57.405Z,1020.4
2022-11-06T21:54:41.108Z,1018.9
2022-11-06T21:56:24.805Z,1015.5
2022-11-06T21:58:08.511Z,1015.6
2022-11-06T21:59:52.221Z,1010.8
2022-11-06T22:01:35.912Z,1014.7